PWSweather.com
Personal Weather Stations
Station Observations
133525
French Quarters West Seneca , West Seneca, NY 14224

French Quarters West Seneca West Seneca, NY 14224

Lat: 42.850058, Lon: -78.799754

Elevation: 603

Station Type: Davis Vantage Vue pro2

http://westsenecaweather.com/

High Low Average
Temperature 53.3°F11.8°C 37.2°F2.9°C 44.0°F6.7°C
Dew Point 48.0°F8.9°C 36.0°F2.2°C 42.4°F5.8°C
Winds 3.5 mph 5.6 kmh Calm Calm 1.0 mph SW1.6 kmh SW
Wind Gusts 6.9 mph11.1 kmh -- 2.0 mph3.2 kmh
Humidity 97% 82% 95%
Pressure 30.07 in1018.3 mb 29.64 in1003.7 mb -
Precipitation 0.20 in5.1 mm - -
Hour Temp Dew Point Humidity Winds Wind Gusts Pressure Precip Precip Rate Daily Precip Total
12:00 AM 37.4°F3.0°C 36.4°F2.4°C 96% Calm Calm -- 30.07 in1018.3 mb - 0.00 in0.0 mm 0.00 in0.0 mm
12:10 AM 37.4°F3.0°C 36.1°F2.3°C 95% Calm Calm -- 30.07 in1018.3 mb - 0.00 in0.0 mm 0.00 in0.0 mm
12:20 AM 37.3°F2.9°C 36.0°F2.2°C 95% Calm Calm -- 30.06 in1017.9 mb - 0.00 in0.0 mm 0.00 in0.0 mm
12:30 AM 37.3°F2.9°C 36.3°F2.4°C 96% Calm Calm -- 30.06 in1017.9 mb - 0.00 in0.0 mm 0.00 in0.0 mm
12:40 AM 37.2°F2.9°C 36.2°F2.3°C 96% Calm Calm -- 30.06 in1017.9 mb - 0.00 in0.0 mm 0.00 in0.0 mm
12:50 AM 37.2°F2.9°C 36.2°F2.3°C 96% Calm Calm -- 30.06 in1017.9 mb - 0.00 in0.0 mm 0.00 in0.0 mm
01:00 AM 37.2°F2.9°C 36.2°F2.3°C 96% Calm Calm -- 30.06 in1017.9 mb - 0.00 in0.0 mm 0.00 in0.0 mm
01:10 AM 37.3°F2.9°C 36.2°F2.3°C 96% Calm Calm -- 30.05 in1017.6 mb - 0.00 in0.0 mm 0.00 in0.0 mm
01:20 AM 37.4°F3.0°C 36.4°F2.4°C 96% Calm Calm -- 30.06 in1017.9 mb - 0.00 in0.0 mm 0.00 in0.0 mm
01:30 AM 37.6°F3.1°C 36.6°F2.6°C 96% Calm Calm -- 30.05 in1017.6 mb - 0.00 in0.0 mm 0.00 in0.0 mm
01:40 AM 37.5°F3.1°C 36.5°F2.5°C 96% Calm Calm -- 30.05 in1017.6 mb - 0.00 in0.0 mm 0.00 in0.0 mm
01:50 AM 37.7°F3.2°C 36.7°F2.6°C 96% Calm Calm -- 30.05 in1017.6 mb - 0.01 in0.3 mm 0.01 in0.3 mm
02:00 AM 37.8°F3.2°C 36.8°F2.7°C 96% Calm Calm -- 30.05 in1017.6 mb - 0.00 in0.0 mm 0.01 in0.3 mm
02:10 AM 37.9°F3.3°C 36.9°F2.7°C 96% Calm Calm -- 30.06 in1017.9 mb - 0.00 in0.0 mm 0.01 in0.3 mm
02:20 AM 37.7°F3.2°C 36.7°F2.6°C 96% Calm Calm -- 30.06 in1017.9 mb - 0.00 in0.0 mm 0.01 in0.3 mm
02:30 AM 37.8°F3.2°C 36.8°F2.7°C 96% Calm Calm -- 30.05 in1017.6 mb - 0.00 in0.0 mm 0.01 in0.3 mm
02:40 AM 37.8°F3.2°C 36.8°F2.7°C 96% Calm Calm -- 30.05 in1017.6 mb - 0.00 in0.0 mm 0.01 in0.3 mm
02:50 AM 38.0°F3.3°C 37.0°F2.8°C 96% Calm Calm -- 30.05 in1017.6 mb - 0.00 in0.0 mm 0.01 in0.3 mm
03:00 AM 38.2°F3.4°C 37.2°F2.9°C 96% Calm Calm -- 30.05 in1017.6 mb - 0.00 in0.0 mm 0.01 in0.3 mm
03:10 AM 38.3°F3.5°C 37.3°F2.9°C 96% Calm Calm -- 30.05 in1017.6 mb - 0.00 in0.0 mm 0.01 in0.3 mm
03:20 AM 38.3°F3.5°C 37.3°F2.9°C 96% Calm Calm -- 30.05 in1017.6 mb - 0.00 in0.0 mm 0.01 in0.3 mm
03:30 AM 38.2°F3.4°C 37.2°F2.9°C 96% Calm Calm -- 30.05 in1017.6 mb - 0.00 in0.0 mm 0.01 in0.3 mm
03:40 AM 38.3°F3.5°C 37.2°F2.9°C 96% Calm Calm -- 30.05 in1017.6 mb - 0.00 in0.0 mm 0.01 in0.3 mm
03:50 AM 38.4°F3.6°C 37.4°F3.0°C 96% Calm Calm -- 30.05 in1017.6 mb - 0.00 in0.0 mm 0.01 in0.3 mm
04:00 AM 38.4°F3.6°C 37.3°F2.9°C 96% Calm Calm -- 30.04 in1017.3 mb - 0.00 in0.0 mm 0.01 in0.3 mm
04:10 AM 38.6°F3.7°C 37.6°F3.1°C 96% Calm Calm -- 30.04 in1017.3 mb - 0.00 in0.0 mm 0.01 in0.3 mm
04:20 AM 38.3°F3.5°C 37.3°F2.9°C 96% Calm Calm -- 30.04 in1017.3 mb - 0.00 in0.0 mm 0.01 in0.3 mm
04:30 AM 38.5°F3.6°C 37.8°F3.2°C 97% Calm Calm -- 30.04 in1017.3 mb - 0.00 in0.0 mm 0.01 in0.3 mm
04:40 AM 38.7°F3.7°C 37.9°F3.3°C 97% Calm Calm -- 30.04 in1017.3 mb - 0.00 in0.0 mm 0.01 in0.3 mm
04:50 AM 38.6°F3.7°C 37.5°F3.1°C 96% Calm Calm -- 30.04 in1017.3 mb - 0.00 in0.0 mm 0.01 in0.3 mm
05:00 AM 38.9°F3.8°C 38.1°F3.4°C 97% Calm Calm -- 30.04 in1017.3 mb - 0.00 in0.0 mm 0.01 in0.3 mm
05:10 AM 39.0°F3.9°C 38.2°F3.4°C 97% Calm Calm -- 30.04 in1017.3 mb - 0.00 in0.0 mm 0.01 in0.3 mm
05:20 AM 38.8°F3.8°C 38.0°F3.3°C 97% Calm Calm -- 30.04 in1017.3 mb - 0.00 in0.0 mm 0.01 in0.3 mm
05:30 AM 38.8°F3.8°C 38.0°F3.3°C 97% Calm Calm -- 30.04 in1017.3 mb - 0.00 in0.0 mm 0.01 in0.3 mm
05:40 AM 38.9°F3.8°C 38.1°F3.4°C 97% Calm Calm -- 30.04 in1017.3 mb - 0.00 in0.0 mm 0.01 in0.3 mm
05:50 AM 39.0°F3.9°C 38.2°F3.4°C 97% Calm Calm -- 30.04 in1017.3 mb - 0.00 in0.0 mm 0.01 in0.3 mm
06:00 AM 39.1°F3.9°C 38.3°F3.5°C 97% Calm Calm -- 30.04 in1017.3 mb - 0.00 in0.0 mm 0.01 in0.3 mm
06:10 AM 39.3°F4.1°C 38.5°F3.6°C 97% 1.2 mph SSW1.9 kmh SSW 2.3 mph3.7 kmh 30.04 in1017.3 mb - 0.00 in0.0 mm 0.01 in0.3 mm
06:20 AM 39.5°F4.2°C 38.7°F3.7°C 97% 2.3 mph SW3.7 kmh SW 3.5 mph5.6 kmh 30.03 in1016.9 mb - 0.00 in0.0 mm 0.01 in0.3 mm
06:30 AM 39.4°F4.1°C 38.6°F3.7°C 97% 1.2 mph SSW1.9 kmh SSW 2.3 mph3.7 kmh 30.04 in1017.3 mb - 0.00 in0.0 mm 0.01 in0.3 mm
06:40 AM 39.4°F4.1°C 38.6°F3.7°C 97% Calm Calm -- 30.05 in1017.6 mb - 0.00 in0.0 mm 0.01 in0.3 mm
06:50 AM 39.5°F4.2°C 38.7°F3.7°C 97% Calm Calm -- 30.05 in1017.6 mb - 0.00 in0.0 mm 0.01 in0.3 mm
07:00 AM 39.5°F4.2°C 38.7°F3.7°C 97% 1.2 mph SSW1.9 kmh SSW 2.3 mph3.7 kmh 30.05 in1017.6 mb - 0.00 in0.0 mm 0.01 in0.3 mm
07:10 AM 39.6°F4.2°C 38.8°F3.8°C 97% 2.3 mph SSW3.7 kmh SSW 3.5 mph5.6 kmh 30.04 in1017.3 mb - 0.01 in0.3 mm 0.02 in0.5 mm
07:20 AM 39.7°F4.3°C 38.9°F3.8°C 97% 2.3 mph SW3.7 kmh SW 4.6 mph7.4 kmh 30.04 in1017.3 mb - 0.00 in0.0 mm 0.02 in0.5 mm
07:30 AM 39.7°F4.3°C 38.9°F3.8°C 97% 1.2 mph SW1.9 kmh SW 2.3 mph3.7 kmh 30.04 in1017.3 mb - 0.00 in0.0 mm 0.02 in0.5 mm
07:40 AM 39.7°F4.3°C 38.9°F3.8°C 97% 2.3 mph SW3.7 kmh SW 3.5 mph5.6 kmh 30.04 in1017.3 mb - 0.00 in0.0 mm 0.02 in0.5 mm
07:50 AM 39.7°F4.3°C 38.9°F3.8°C 97% 2.3 mph SW3.7 kmh SW 4.6 mph7.4 kmh 30.03 in1016.9 mb - 0.00 in0.0 mm 0.02 in0.5 mm
08:00 AM 39.9°F4.4°C 39.1°F3.9°C 97% 2.3 mph SW3.7 kmh SW 3.5 mph5.6 kmh 30.03 in1016.9 mb - 0.00 in0.0 mm 0.02 in0.5 mm
08:10 AM 40.1°F4.5°C 39.3°F4.1°C 97% 1.2 mph SW1.9 kmh SW 3.5 mph5.6 kmh 30.03 in1016.9 mb - 0.00 in0.0 mm 0.02 in0.5 mm
08:20 AM 40.2°F4.6°C 39.4°F4.1°C 97% 2.3 mph SW3.7 kmh SW 3.5 mph5.6 kmh 30.02 in1016.6 mb - 0.00 in0.0 mm 0.02 in0.5 mm
08:30 AM 40.2°F4.6°C 39.4°F4.1°C 97% Calm Calm 1.2 mph1.9 kmh 30.03 in1016.9 mb - 0.00 in0.0 mm 0.02 in0.5 mm
08:40 AM 40.3°F4.6°C 39.5°F4.2°C 97% 1.2 mph SW1.9 kmh SW 3.5 mph5.6 kmh 30.02 in1016.6 mb - 0.00 in0.0 mm 0.02 in0.5 mm
08:50 AM 40.4°F4.7°C 39.6°F4.2°C 97% 3.5 mph SW5.6 kmh SW 5.8 mph9.3 kmh 30.00 in1015.9 mb - 0.00 in0.0 mm 0.02 in0.5 mm
09:00 AM 40.6°F4.8°C 39.8°F4.3°C 97% 2.3 mph S3.7 kmh S 3.5 mph5.6 kmh 30.01 in1016.3 mb - 0.00 in0.0 mm 0.02 in0.5 mm
09:10 AM 40.6°F4.8°C 39.8°F4.3°C 97% 2.3 mph S3.7 kmh S 3.5 mph5.6 kmh 30.01 in1016.3 mb - 0.00 in0.0 mm 0.02 in0.5 mm
09:20 AM 40.7°F4.8°C 39.9°F4.4°C 97% 2.3 mph SSW3.7 kmh SSW 3.5 mph5.6 kmh 30.01 in1016.3 mb - 0.00 in0.0 mm 0.02 in0.5 mm
09:30 AM 40.7°F4.8°C 39.9°F4.4°C 97% 2.3 mph SSW3.7 kmh SSW 3.5 mph5.6 kmh 30.01 in1016.3 mb - 0.00 in0.0 mm 0.02 in0.5 mm
09:40 AM 40.9°F4.9°C 40.1°F4.5°C 97% 3.5 mph S5.6 kmh S 4.6 mph7.4 kmh 30.00 in1015.9 mb - 0.01 in0.3 mm 0.03 in0.8 mm
09:50 AM 41.0°F5.0°C 40.2°F4.6°C 97% 3.5 mph SW5.6 kmh SW 3.5 mph5.6 kmh 30.01 in1016.3 mb - 0.01 in0.3 mm 0.03 in0.8 mm
10:00 AM 41.2°F5.1°C 40.4°F4.7°C 97% 2.3 mph SW3.7 kmh SW 4.6 mph7.4 kmh 30.00 in1015.9 mb - 0.00 in0.0 mm 0.03 in0.8 mm
10:10 AM 41.4°F5.2°C 40.6°F4.8°C 97% 3.5 mph SSW5.6 kmh SSW 5.8 mph9.3 kmh 30.00 in1015.9 mb - 0.00 in0.0 mm 0.03 in0.8 mm
10:20 AM 41.5°F5.3°C 40.7°F4.8°C 97% 2.3 mph SSW3.7 kmh SSW 4.6 mph7.4 kmh 30.00 in1015.9 mb - 0.00 in0.0 mm 0.03 in0.8 mm
10:30 AM 41.7°F5.4°C 40.9°F4.9°C 97% 1.2 mph SSW1.9 kmh SSW 2.3 mph3.7 kmh 29.99 in1015.6 mb - 0.00 in0.0 mm 0.03 in0.8 mm
10:40 AM 42.0°F5.6°C 41.2°F5.1°C 97% 2.3 mph SSW3.7 kmh SSW 3.5 mph5.6 kmh 29.99 in1015.6 mb - 0.00 in0.0 mm 0.03 in0.8 mm
10:50 AM 42.3°F5.7°C 41.5°F5.3°C 97% 3.5 mph SSW5.6 kmh SSW 5.8 mph9.3 kmh 29.99 in1015.6 mb - 0.00 in0.0 mm 0.03 in0.8 mm
11:00 AM 42.5°F5.8°C 41.7°F5.4°C 97% 2.3 mph SW3.7 kmh SW 3.5 mph5.6 kmh 29.98 in1015.2 mb - 0.01 in0.3 mm 0.04 in1.0 mm
11:10 AM 42.5°F5.8°C 41.7°F5.4°C 97% 2.3 mph SW3.7 kmh SW 3.5 mph5.6 kmh 29.98 in1015.2 mb - 0.00 in0.0 mm 0.04 in1.0 mm
11:20 AM 42.6°F5.9°C 41.8°F5.4°C 97% 1.2 mph SW1.9 kmh SW 3.5 mph5.6 kmh 29.97 in1014.9 mb - 0.00 in0.0 mm 0.04 in1.0 mm
11:30 AM 42.7°F5.9°C 41.9°F5.5°C 97% 2.3 mph SSW3.7 kmh SSW 3.5 mph5.6 kmh 29.97 in1014.9 mb - 0.01 in0.3 mm 0.05 in1.3 mm
11:40 AM 42.8°F6.0°C 42.0°F5.6°C 97% 2.3 mph SSW3.7 kmh SSW 3.5 mph5.6 kmh 29.96 in1014.6 mb - 0.00 in0.0 mm 0.05 in1.3 mm
11:50 AM 42.8°F6.0°C 42.0°F5.6°C 97% 1.2 mph SSE1.9 kmh SSE 3.5 mph5.6 kmh 29.95 in1014.2 mb - 0.00 in0.0 mm 0.05 in1.3 mm
12:00 PM 43.1°F6.2°C 42.3°F5.7°C 97% 1.2 mph S1.9 kmh S 2.3 mph3.7 kmh 29.95 in1014.2 mb - 0.01 in0.3 mm 0.06 in1.5 mm
12:10 PM 43.4°F6.3°C 42.6°F5.9°C 97% Calm Calm 3.5 mph5.6 kmh 29.94 in1013.9 mb - 0.00 in0.0 mm 0.06 in1.5 mm
12:20 PM 43.5°F6.4°C 42.7°F5.9°C 97% Calm Calm 1.2 mph1.9 kmh 29.93 in1013.5 mb - 0.00 in0.0 mm 0.06 in1.5 mm
12:30 PM 43.6°F6.4°C 42.8°F6.0°C 97% 2.3 mph S3.7 kmh S 3.5 mph5.6 kmh 29.92 in1013.2 mb - 0.00 in0.0 mm 0.06 in1.5 mm
12:40 PM 43.8°F6.6°C 43.0°F6.1°C 97% 1.2 mph SW1.9 kmh SW 2.3 mph3.7 kmh 29.92 in1013.2 mb - 0.00 in0.0 mm 0.06 in1.5 mm
12:50 PM 44.2°F6.8°C 43.4°F6.3°C 97% 1.2 mph S1.9 kmh S 2.3 mph3.7 kmh 29.92 in1013.2 mb - 0.00 in0.0 mm 0.06 in1.5 mm
01:00 PM 44.6°F7.0°C 43.8°F6.6°C 97% Calm Calm -- 29.91 in1012.9 mb - 0.00 in0.0 mm 0.06 in1.5 mm
01:10 PM 45.0°F7.2°C 44.2°F6.8°C 97% Calm Calm -- 29.90 in1012.5 mb - 0.00 in0.0 mm 0.06 in1.5 mm
01:20 PM 45.4°F7.4°C 44.6°F7.0°C 97% 2.3 mph SW3.7 kmh SW 3.5 mph5.6 kmh 29.89 in1012.2 mb - 0.00 in0.0 mm 0.06 in1.5 mm
01:30 PM 46.0°F7.8°C 45.2°F7.3°C 97% 3.5 mph SW5.6 kmh SW 4.6 mph7.4 kmh 29.88 in1011.9 mb - 0.00 in0.0 mm 0.06 in1.5 mm
01:40 PM 46.6°F8.1°C 45.8°F7.7°C 97% 2.3 mph SW3.7 kmh SW 2.3 mph3.7 kmh 29.87 in1011.5 mb - 0.00 in0.0 mm 0.06 in1.5 mm
01:50 PM 47.2°F8.4°C 46.4°F8.0°C 97% Calm Calm -- 29.87 in1011.5 mb - 0.00 in0.0 mm 0.06 in1.5 mm
02:00 PM 47.7°F8.7°C 46.9°F8.3°C 97% 1.2 mph SSW1.9 kmh SSW 3.5 mph5.6 kmh 29.87 in1011.5 mb - 0.00 in0.0 mm 0.06 in1.5 mm
02:10 PM 48.0°F8.9°C 47.2°F8.4°C 97% 2.3 mph SSW3.7 kmh SSW 3.5 mph5.6 kmh 29.87 in1011.5 mb - 0.00 in0.0 mm 0.06 in1.5 mm
02:20 PM 48.3°F9.1°C 47.4°F8.6°C 97% 2.3 mph SSW3.7 kmh SSW 3.5 mph5.6 kmh 29.86 in1011.2 mb - 0.00 in0.0 mm 0.06 in1.5 mm
02:30 PM 48.6°F9.2°C 47.7°F8.7°C 97% 1.2 mph SSW1.9 kmh SSW 1.2 mph1.9 kmh 29.86 in1011.2 mb - 0.00 in0.0 mm 0.06 in1.5 mm
02:40 PM 48.6°F9.2°C 47.5°F8.6°C 96% 1.2 mph SW1.9 kmh SW 1.2 mph1.9 kmh 29.85 in1010.8 mb - 0.00 in0.0 mm 0.06 in1.5 mm
02:50 PM 48.6°F9.2°C 47.5°F8.6°C 96% Calm Calm 1.2 mph1.9 kmh 29.85 in1010.8 mb - 0.00 in0.0 mm 0.06 in1.5 mm
03:00 PM 48.9°F9.4°C 47.9°F8.8°C 96% Calm Calm -- 29.85 in1010.8 mb - 0.00 in0.0 mm 0.06 in1.5 mm
03:10 PM 49.1°F9.5°C 48.0°F8.9°C 96% Calm Calm 2.3 mph3.7 kmh 29.84 in1010.5 mb - 0.00 in0.0 mm 0.06 in1.5 mm
03:20 PM 49.0°F9.4°C 47.6°F8.7°C 95% 1.2 mph SSE1.9 kmh SSE 2.3 mph3.7 kmh 29.84 in1010.5 mb - 0.00 in0.0 mm 0.06 in1.5 mm
03:30 PM 48.5°F9.2°C 46.9°F8.3°C 94% 1.2 mph SE1.9 kmh SE 2.3 mph3.7 kmh 29.84 in1010.5 mb - 0.00 in0.0 mm 0.06 in1.5 mm
03:40 PM 47.6°F8.7°C 46.2°F7.9°C 95% Calm Calm -- 29.86 in1011.2 mb - 0.02 in0.5 mm 0.08 in2.0 mm
03:50 PM 47.4°F8.6°C 46.0°F7.8°C 95% Calm Calm 1.2 mph1.9 kmh 29.85 in1010.8 mb - 0.05 in1.3 mm 0.12 in3.0 mm
04:00 PM 47.4°F8.6°C 46.3°F7.9°C 96% Calm Calm 1.2 mph1.9 kmh 29.85 in1010.8 mb - 0.00 in0.0 mm 0.12 in3.0 mm
04:10 PM 47.2°F8.4°C 46.1°F7.8°C 96% Calm Calm -- 29.84 in1010.5 mb - 0.00 in0.0 mm 0.12 in3.0 mm
04:20 PM 47.3°F8.5°C 46.2°F7.9°C 96% Calm Calm -- 29.83 in1010.2 mb - 0.00 in0.0 mm 0.12 in3.0 mm
04:30 PM 47.3°F8.5°C 46.2°F7.9°C 96% 1.2 mph SW1.9 kmh SW 2.3 mph3.7 kmh 29.83 in1010.2 mb - 0.00 in0.0 mm 0.12 in3.0 mm
04:40 PM 47.2°F8.4°C 46.1°F7.8°C 96% Calm Calm -- 29.83 in1010.2 mb - 0.00 in0.0 mm 0.12 in3.0 mm
04:50 PM 47.2°F8.4°C 46.1°F7.8°C 96% 2.3 mph SW3.7 kmh SW 3.5 mph5.6 kmh 29.82 in1009.8 mb - 0.00 in0.0 mm 0.12 in3.0 mm
05:00 PM 47.3°F8.5°C 46.2°F7.9°C 96% 1.2 mph SW1.9 kmh SW 1.2 mph1.9 kmh 29.81 in1009.5 mb - 0.00 in0.0 mm 0.12 in3.0 mm
05:10 PM 46.9°F8.3°C 45.8°F7.7°C 96% Calm Calm -- 29.81 in1009.5 mb - 0.00 in0.0 mm 0.12 in3.0 mm
05:20 PM 46.9°F8.3°C 46.1°F7.8°C 97% Calm Calm -- 29.81 in1009.5 mb - 0.00 in0.0 mm 0.12 in3.0 mm
05:30 PM 46.8°F8.2°C 45.7°F7.6°C 96% 1.2 mph SW1.9 kmh SW 2.3 mph3.7 kmh 29.81 in1009.5 mb - 0.00 in0.0 mm 0.12 in3.0 mm
05:40 PM 46.8°F8.2°C 45.7°F7.6°C 96% Calm Calm 1.2 mph1.9 kmh 29.80 in1009.1 mb - 0.00 in0.0 mm 0.12 in3.0 mm
05:50 PM 46.6°F8.1°C 45.6°F7.6°C 96% Calm Calm 1.2 mph1.9 kmh 29.80 in1009.1 mb - 0.00 in0.0 mm 0.12 in3.0 mm
06:00 PM 46.8°F8.2°C 46.0°F7.8°C 97% 2.3 mph SW3.7 kmh SW 3.5 mph5.6 kmh 29.80 in1009.1 mb - 0.00 in0.0 mm 0.12 in3.0 mm
06:10 PM 47.3°F8.5°C 46.5°F8.1°C 97% 1.2 mph SW1.9 kmh SW 1.2 mph1.9 kmh 29.80 in1009.1 mb - 0.00 in0.0 mm 0.12 in3.0 mm
06:20 PM 47.0°F8.3°C 45.9°F7.7°C 96% 1.2 mph SW1.9 kmh SW 2.3 mph3.7 kmh 29.79 in1008.8 mb - 0.00 in0.0 mm 0.12 in3.0 mm
06:30 PM 46.7°F8.2°C 45.7°F7.6°C 96% Calm Calm 2.3 mph3.7 kmh 29.79 in1008.8 mb - 0.00 in0.0 mm 0.12 in3.0 mm
06:40 PM 46.3°F7.9°C 45.5°F7.5°C 97% 1.2 mph SW1.9 kmh SW 2.3 mph3.7 kmh 29.79 in1008.8 mb - 0.00 in0.0 mm 0.12 in3.0 mm
06:50 PM 47.0°F8.3°C 46.1°F7.8°C 97% 1.2 mph WSW1.9 kmh WSW 2.3 mph3.7 kmh 29.78 in1008.5 mb - 0.00 in0.0 mm 0.12 in3.0 mm
07:00 PM 47.7°F8.7°C 46.9°F8.3°C 97% 1.2 mph WSW1.9 kmh WSW 1.2 mph1.9 kmh 29.78 in1008.5 mb - 0.00 in0.0 mm 0.12 in3.0 mm
07:10 PM 48.1°F8.9°C 47.0°F8.3°C 96% 1.2 mph W1.9 kmh W 3.5 mph5.6 kmh 29.77 in1008.1 mb - 0.00 in0.0 mm 0.12 in3.0 mm
07:20 PM 48.8°F9.3°C 47.7°F8.7°C 96% 2.3 mph W3.7 kmh W 3.5 mph5.6 kmh 29.76 in1007.8 mb - 0.00 in0.0 mm 0.12 in3.0 mm
07:30 PM 49.4°F9.7°C 47.8°F8.8°C 94% 3.5 mph W5.6 kmh W 4.6 mph7.4 kmh 29.76 in1007.8 mb - 0.00 in0.0 mm 0.12 in3.0 mm
07:40 PM 49.9°F9.9°C 47.7°F8.7°C 92% 1.2 mph WSW1.9 kmh WSW 2.3 mph3.7 kmh 29.76 in1007.8 mb - 0.00 in0.0 mm 0.12 in3.0 mm
07:50 PM 50.4°F10.2°C 47.6°F8.7°C 90% 2.3 mph W3.7 kmh W 3.5 mph5.6 kmh 29.75 in1007.5 mb - 0.00 in0.0 mm 0.12 in3.0 mm
08:00 PM 50.6°F10.3°C 47.5°F8.6°C 89% 2.3 mph WNW3.7 kmh WNW 4.6 mph7.4 kmh 29.75 in1007.5 mb - 0.00 in0.0 mm 0.12 in3.0 mm
08:10 PM 51.1°F10.6°C 47.6°F8.7°C 88% 3.5 mph NW5.6 kmh NW 3.5 mph5.6 kmh 29.75 in1007.5 mb - 0.00 in0.0 mm 0.12 in3.0 mm
08:20 PM 51.7°F10.9°C 47.7°F8.7°C 86% 3.5 mph WNW5.6 kmh WNW 3.5 mph5.6 kmh 29.74 in1007.1 mb - 0.00 in0.0 mm 0.12 in3.0 mm
08:30 PM 51.9°F11.1°C 47.5°F8.6°C 85% 2.3 mph WNW3.7 kmh WNW 5.8 mph9.3 kmh 29.74 in1007.1 mb - 0.00 in0.0 mm 0.12 in3.0 mm
08:40 PM 52.5°F11.4°C 47.8°F8.8°C 84% 2.3 mph WNW3.7 kmh WNW 6.9 mph11.1 kmh 29.74 in1007.1 mb - 0.00 in0.0 mm 0.12 in3.0 mm
08:50 PM 53.1°F11.7°C 47.7°F8.7°C 82% 1.2 mph WSW1.9 kmh WSW 2.3 mph3.7 kmh 29.73 in1006.8 mb - 0.00 in0.0 mm 0.12 in3.0 mm
09:00 PM 53.3°F11.8°C 47.9°F8.8°C 82% 1.2 mph WNW1.9 kmh WNW 3.5 mph5.6 kmh 29.73 in1006.8 mb - 0.00 in0.0 mm 0.12 in3.0 mm
09:10 PM 53.0°F11.7°C 47.6°F8.7°C 82% 2.3 mph WNW3.7 kmh WNW 3.5 mph5.6 kmh 29.72 in1006.4 mb - 0.00 in0.0 mm 0.12 in3.0 mm
09:20 PM 52.8°F11.6°C 47.8°F8.8°C 83% 2.3 mph W3.7 kmh W 3.5 mph5.6 kmh 29.72 in1006.4 mb - 0.00 in0.0 mm 0.12 in3.0 mm
09:30 PM 53.0°F11.7°C 47.7°F8.7°C 82% 3.5 mph WNW5.6 kmh WNW 4.6 mph7.4 kmh 29.71 in1006.1 mb - 0.01 in0.3 mm 0.13 in3.3 mm
09:40 PM 52.8°F11.6°C 47.5°F8.6°C 82% 2.3 mph WNW3.7 kmh WNW 4.6 mph7.4 kmh 29.71 in1006.1 mb - 0.00 in0.0 mm 0.13 in3.3 mm
09:50 PM 52.5°F11.4°C 47.5°F8.6°C 83% 2.3 mph WNW3.7 kmh WNW 3.5 mph5.6 kmh 29.71 in1006.1 mb - 0.01 in0.3 mm 0.14 in3.6 mm
10:00 PM 52.1°F11.2°C 47.4°F8.6°C 84% 2.3 mph WNW3.7 kmh WNW 3.5 mph5.6 kmh 29.70 in1005.8 mb - 0.00 in0.0 mm 0.14 in3.6 mm
10:10 PM 51.5°F10.8°C 47.5°F8.6°C 86% 2.3 mph WNW3.7 kmh WNW 3.5 mph5.6 kmh 29.69 in1005.4 mb - 0.01 in0.3 mm 0.15 in3.8 mm
10:20 PM 51.2°F10.7°C 47.5°F8.6°C 87% 3.5 mph WNW5.6 kmh WNW 4.6 mph7.4 kmh 29.69 in1005.4 mb - 0.01 in0.3 mm 0.16 in4.1 mm
10:30 PM 51.0°F10.6°C 47.3°F8.5°C 87% 2.3 mph WNW3.7 kmh WNW 3.5 mph5.6 kmh 29.69 in1005.4 mb - 0.00 in0.0 mm 0.16 in4.1 mm
10:40 PM 50.8°F10.4°C 47.1°F8.4°C 87% 2.3 mph W3.7 kmh W 3.5 mph5.6 kmh 29.68 in1005.1 mb - 0.01 in0.3 mm 0.17 in4.3 mm
10:50 PM 50.4°F10.2°C 46.7°F8.2°C 87% 1.2 mph WNW1.9 kmh WNW 2.3 mph3.7 kmh 29.67 in1004.7 mb - 0.00 in0.0 mm 0.17 in4.3 mm
11:00 PM 50.3°F10.2°C 46.6°F8.1°C 87% 2.3 mph NW3.7 kmh NW 3.5 mph5.6 kmh 29.67 in1004.7 mb - 0.01 in0.3 mm 0.18 in4.6 mm
11:10 PM 50.3°F10.2°C 46.6°F8.1°C 87% Calm Calm 1.2 mph1.9 kmh 29.67 in1004.7 mb - 0.00 in0.0 mm 0.18 in4.6 mm
11:20 PM 50.0°F10.0°C 46.3°F7.9°C 87% 2.3 mph W3.7 kmh W 3.5 mph5.6 kmh 29.66 in1004.4 mb - 0.01 in0.3 mm 0.19 in4.8 mm
11:30 PM 50.2°F10.1°C 46.4°F8.0°C 87% Calm Calm 2.3 mph3.7 kmh 29.65 in1004.1 mb - 0.00 in0.0 mm 0.19 in4.8 mm
11:40 PM 50.4°F10.2°C 46.4°F8.0°C 86% 1.2 mph NW1.9 kmh NW 2.3 mph3.7 kmh 29.64 in1003.7 mb - 0.01 in0.3 mm 0.20 in5.1 mm
11:50 PM 50.3°F10.2°C 46.3°F7.9°C 86% Calm Calm 1.2 mph1.9 kmh 29.64 in1003.7 mb - 0.01 in0.3 mm 0.20 in5.1 mm